sensor_id;sensor_type;location;lat;lon;timestamp;P1;durP1;ratioP1;P2;durP2;ratioP2
14088;SDS011;7120;52.890;6.040;2023-08-21T00:01:55;5.07;;;3.90;;
14088;SDS011;7120;52.890;6.040;2023-08-21T00:04:21;5.87;;;3.70;;
14088;SDS011;7120;52.890;6.040;2023-08-21T00:06:46;5.67;;;4.00;;
14088;SDS011;7120;52.890;6.040;2023-08-21T00:09:12;4.60;;;3.77;;
14088;SDS011;7120;52.890;6.040;2023-08-21T00:11:37;7.10;;;4.40;;
14088;SDS011;7120;52.890;6.040;2023-08-21T00:14:02;4.30;;;3.90;;
14088;SDS011;7120;52.890;6.040;2023-08-21T00:16:28;4.40;;;3.33;;
14088;SDS011;7120;52.890;6.040;2023-08-21T00:18:54;7.77;;;3.70;;
14088;SDS011;7120;52.890;6.040;2023-08-21T00:21:19;3.80;;;3.33;;
14088;SDS011;7120;52.890;6.040;2023-08-21T00:23:45;4.17;;;3.60;;
14088;SDS011;7120;52.890;6.040;2023-08-21T00:26:11;4.00;;;3.60;;
14088;SDS011;7120;52.890;6.040;2023-08-21T00:28:37;5.27;;;3.47;;
14088;SDS011;7120;52.890;6.040;2023-08-21T00:31:03;3.53;;;3.23;;
14088;SDS011;7120;52.890;6.040;2023-08-21T00:33:30;4.07;;;3.53;;
14088;SDS011;7120;52.890;6.040;2023-08-21T00:35:56;4.47;;;3.23;;
14088;SDS011;7120;52.890;6.040;2023-08-21T00:38:21;3.10;;;2.90;;
14088;SDS011;7120;52.890;6.040;2023-08-21T00:40:47;3.20;;;2.90;;
14088;SDS011;7120;52.890;6.040;2023-08-21T00:43:12;3.17;;;2.87;;
14088;SDS011;7120;52.890;6.040;2023-08-21T00:45:38;6.27;;;3.40;;
14088;SDS011;7120;52.890;6.040;2023-08-21T00:48:07;4.40;;;3.90;;
14088;SDS011;7120;52.890;6.040;2023-08-21T00:50:33;3.93;;;3.53;;
14088;SDS011;7120;52.890;6.040;2023-08-21T00:52:58;5.30;;;4.00;;
14088;SDS011;7120;52.890;6.040;2023-08-21T00:55:24;4.50;;;3.50;;
14088;SDS011;7120;52.890;6.040;2023-08-21T00:57:50;6.80;;;3.77;;
14088;SDS011;7120;52.890;6.040;2023-08-21T01:00:16;3.83;;;3.50;;
14088;SDS011;7120;52.890;6.040;2023-08-21T01:02:42;3.70;;;3.40;;
14088;SDS011;7120;52.890;6.040;2023-08-21T01:05:08;4.23;;;3.30;;
14088;SDS011;7120;52.890;6.040;2023-08-21T01:10:57;4.40;;;3.60;;
14088;SDS011;7120;52.890;6.040;2023-08-21T01:16:16;5.20;;;3.10;;
14088;SDS011;7120;52.890;6.040;2023-08-21T01:18:43;3.90;;;3.47;;
14088;SDS011;7120;52.890;6.040;2023-08-21T01:21:12;5.20;;;3.30;;
14088;SDS011;7120;52.890;6.040;2023-08-21T01:23:38;3.87;;;2.63;;
14088;SDS011;7120;52.890;6.040;2023-08-21T01:26:04;3.07;;;2.73;;
14088;SDS011;7120;52.890;6.040;2023-08-21T01:28:33;3.97;;;2.43;;
14088;SDS011;7120;52.890;6.040;2023-08-21T01:31:05;2.67;;;2.20;;
14088;SDS011;7120;52.890;6.040;2023-08-21T01:33:37;3.20;;;2.47;;
14088;SDS011;7120;52.890;6.040;2023-08-21T01:36:07;3.57;;;2.90;;
14088;SDS011;7120;52.890;6.040;2023-08-21T01:38:33;6.93;;;2.40;;
14088;SDS011;7120;52.890;6.040;2023-08-21T01:41:00;4.40;;;2.83;;
14088;SDS011;7120;52.890;6.040;2023-08-21T01:43:25;2.83;;;2.53;;
14088;SDS011;7120;52.890;6.040;2023-08-21T01:45:50;2.70;;;2.20;;
14088;SDS011;7120;52.890;6.040;2023-08-21T01:48:16;5.40;;;2.83;;
14088;SDS011;7120;52.890;6.040;2023-08-21T01:50:41;3.90;;;2.97;;
14088;SDS011;7120;52.890;6.040;2023-08-21T01:53:07;4.83;;;2.67;;
14088;SDS011;7120;52.890;6.040;2023-08-21T01:55:32;4.27;;;2.87;;
14088;SDS011;7120;52.890;6.040;2023-08-21T01:57:58;3.70;;;2.90;;
14088;SDS011;7120;52.890;6.040;2023-08-21T02:00:23;4.80;;;2.90;;
14088;SDS011;7120;52.890;6.040;2023-08-21T02:02:48;5.60;;;3.10;;
14088;SDS011;7120;52.890;6.040;2023-08-21T02:05:14;2.77;;;2.50;;
14088;SDS011;7120;52.890;6.040;2023-08-21T02:07:39;4.07;;;2.53;;
14088;SDS011;7120;52.890;6.040;2023-08-21T02:10:05;6.50;;;3.33;;
14088;SDS011;7120;52.890;6.040;2023-08-21T02:12:31;4.63;;;3.53;;
14088;SDS011;7120;52.890;6.040;2023-08-21T02:14:56;5.53;;;4.77;;
14088;SDS011;7120;52.890;6.040;2023-08-21T02:17:22;5.27;;;3.83;;
14088;SDS011;7120;52.890;6.040;2023-08-21T02:19:50;4.07;;;3.67;;
14088;SDS011;7120;52.890;6.040;2023-08-21T02:22:16;4.70;;;3.70;;
14088;SDS011;7120;52.890;6.040;2023-08-21T02:24:41;4.80;;;3.10;;
14088;SDS011;7120;52.890;6.040;2023-08-21T02:27:06;4.73;;;3.40;;
14088;SDS011;7120;52.890;6.040;2023-08-21T02:29:32;5.03;;;3.10;;
14088;SDS011;7120;52.890;6.040;2023-08-21T02:31:57;4.87;;;3.50;;
14088;SDS011;7120;52.890;6.040;2023-08-21T02:34:23;4.80;;;3.30;;
14088;SDS011;7120;52.890;6.040;2023-08-21T02:36:49;4.87;;;2.73;;
14088;SDS011;7120;52.890;6.040;2023-08-21T02:39:14;4.80;;;3.70;;
14088;SDS011;7120;52.890;6.040;2023-08-21T02:41:40;5.90;;;3.13;;
14088;SDS011;7120;52.890;6.040;2023-08-21T02:44:05;4.07;;;3.30;;
14088;SDS011;7120;52.890;6.040;2023-08-21T02:46:31;4.93;;;3.80;;
14088;SDS011;7120;52.890;6.040;2023-08-21T02:48:58;4.93;;;3.17;;
14088;SDS011;7120;52.890;6.040;2023-08-21T02:51:23;4.53;;;3.37;;
14088;SDS011;7120;52.890;6.040;2023-08-21T02:53:49;4.23;;;3.00;;
14088;SDS011;7120;52.890;6.040;2023-08-21T02:56:14;5.07;;;3.10;;
14088;SDS011;7120;52.890;6.040;2023-08-21T02:58:39;5.63;;;2.73;;
14088;SDS011;7120;52.890;6.040;2023-08-21T03:01:05;7.53;;;3.00;;
14088;SDS011;7120;52.890;6.040;2023-08-21T03:03:30;6.00;;;2.40;;
14088;SDS011;7120;52.890;6.040;2023-08-21T03:05:57;2.93;;;2.73;;
14088;SDS011;7120;52.890;6.040;2023-08-21T03:08:23;5.13;;;3.27;;
14088;SDS011;7120;52.890;6.040;2023-08-21T03:10:48;3.50;;;2.70;;
14088;SDS011;7120;52.890;6.040;2023-08-21T03:13:13;4.50;;;3.33;;
14088;SDS011;7120;52.890;6.040;2023-08-21T03:15:39;3.10;;;2.80;;
14088;SDS011;7120;52.890;6.040;2023-08-21T03:18:04;5.23;;;3.13;;
14088;SDS011;7120;52.890;6.040;2023-08-21T03:20:29;4.40;;;2.83;;
14088;SDS011;7120;52.890;6.040;2023-08-21T03:22:55;3.33;;;2.90;;
14088;SDS011;7120;52.890;6.040;2023-08-21T03:25:20;5.00;;;2.60;;
14088;SDS011;7120;52.890;6.040;2023-08-21T03:27:46;2.47;;;2.27;;
14088;SDS011;7120;52.890;6.040;2023-08-21T03:30:14;3.07;;;2.77;;
14088;SDS011;7120;52.890;6.040;2023-08-21T03:32:40;4.70;;;2.40;;
14088;SDS011;7120;52.890;6.040;2023-08-21T03:35:05;3.33;;;2.53;;
14088;SDS011;7120;52.890;6.040;2023-08-21T03:37:31;2.57;;;2.27;;
14088;SDS011;7120;52.890;6.040;2023-08-21T03:39:56;2.57;;;2.37;;
14088;SDS011;7120;52.890;6.040;2023-08-21T03:42:22;4.80;;;2.43;;
14088;SDS011;7120;52.890;6.040;2023-08-21T03:44:47;4.37;;;2.60;;
14088;SDS011;7120;52.890;6.040;2023-08-21T03:47:15;4.13;;;2.77;;
14088;SDS011;7120;52.890;6.040;2023-08-21T03:49:41;2.47;;;2.27;;
14088;SDS011;7120;52.890;6.040;2023-08-21T03:52:06;2.70;;;2.50;;
14088;SDS011;7120;52.890;6.040;2023-08-21T03:54:32;2.90;;;2.57;;
14088;SDS011;7120;52.890;6.040;2023-08-21T03:56:57;4.10;;;2.70;;
14088;SDS011;7120;52.890;6.040;2023-08-21T03:59:23;3.83;;;2.50;;
14088;SDS011;7120;52.890;6.040;2023-08-21T04:01:49;2.73;;;2.53;;
14088;SDS011;7120;52.890;6.040;2023-08-21T04:04:14;3.43;;;2.70;;
14088;SDS011;7120;52.890;6.040;2023-08-21T04:06:40;3.37;;;2.60;;
14088;SDS011;7120;52.890;6.040;2023-08-21T04:09:05;2.77;;;2.57;;
14088;SDS011;7120;52.890;6.040;2023-08-21T04:11:31;3.67;;;2.80;;
14088;SDS011;7120;52.890;6.040;2023-08-21T04:13:58;4.93;;;2.90;;
14088;SDS011;7120;52.890;6.040;2023-08-21T04:16:24;3.70;;;2.60;;
14088;SDS011;7120;52.890;6.040;2023-08-21T04:18:49;3.80;;;2.47;;
14088;SDS011;7120;52.890;6.040;2023-08-21T04:21:15;2.60;;;2.40;;
14088;SDS011;7120;52.890;6.040;2023-08-21T04:23:40;2.73;;;2.53;;
14088;SDS011;7120;52.890;6.040;2023-08-21T04:26:06;2.83;;;2.63;;
14088;SDS011;7120;52.890;6.040;2023-08-21T04:28:32;3.20;;;2.77;;
14088;SDS011;7120;52.890;6.040;2023-08-21T04:30:59;3.53;;;3.10;;
14088;SDS011;7120;52.890;6.040;2023-08-21T04:33:25;2.73;;;2.23;;
14088;SDS011;7120;52.890;6.040;2023-08-21T04:35:50;4.90;;;2.50;;
14088;SDS011;7120;52.890;6.040;2023-08-21T04:38:16;2.23;;;2.03;;
14088;SDS011;7120;52.890;6.040;2023-08-21T04:40:41;3.33;;;2.60;;
14088;SDS011;7120;52.890;6.040;2023-08-21T04:43:06;3.73;;;2.47;;
14088;SDS011;7120;52.890;6.040;2023-08-21T04:45:32;3.03;;;2.53;;
14088;SDS011;7120;52.890;6.040;2023-08-21T04:47:59;3.13;;;2.87;;
14088;SDS011;7120;52.890;6.040;2023-08-21T04:50:24;2.63;;;2.43;;
14088;SDS011;7120;52.890;6.040;2023-08-21T04:52:49;3.07;;;2.57;;
14088;SDS011;7120;52.890;6.040;2023-08-21T04:55:15;3.60;;;2.63;;
14088;SDS011;7120;52.890;6.040;2023-08-21T04:57:41;5.03;;;2.60;;
14088;SDS011;7120;52.890;6.040;2023-08-21T05:00:07;6.10;;;3.30;;
14088;SDS011;7120;52.890;6.040;2023-08-21T05:02:33;3.53;;;3.00;;
14088;SDS011;7120;52.890;6.040;2023-08-21T05:04:59;5.67;;;3.83;;
14088;SDS011;7120;52.890;6.040;2023-08-21T05:07:25;5.23;;;3.87;;
14088;SDS011;7120;52.890;6.040;2023-08-21T05:09:51;8.13;;;4.10;;
14088;SDS011;7120;52.890;6.040;2023-08-21T05:12:17;4.23;;;3.73;;
14088;SDS011;7120;52.890;6.040;2023-08-21T05:14:42;6.73;;;3.80;;
14088;SDS011;7120;52.890;6.040;2023-08-21T05:17:08;7.63;;;4.40;;
14088;SDS011;7120;52.890;6.040;2023-08-21T05:19:33;6.87;;;4.53;;
14088;SDS011;7120;52.890;6.040;2023-08-21T05:21:58;10.17;;;5.83;;
14088;SDS011;7120;52.890;6.040;2023-08-21T05:24:24;10.17;;;5.33;;
14088;SDS011;7120;52.890;6.040;2023-08-21T05:26:49;7.43;;;5.00;;
14088;SDS011;7120;52.890;6.040;2023-08-21T05:29:15;8.33;;;5.10;;
14088;SDS011;7120;52.890;6.040;2023-08-21T05:31:40;8.20;;;4.87;;
14088;SDS011;7120;52.890;6.040;2023-08-21T05:34:06;6.10;;;4.87;;
14088;SDS011;7120;52.890;6.040;2023-08-21T05:36:31;7.90;;;4.93;;
14088;SDS011;7120;52.890;6.040;2023-08-21T05:38:56;8.63;;;4.57;;
14088;SDS011;7120;52.890;6.040;2023-08-21T05:41:22;7.43;;;5.03;;
14088;SDS011;7120;52.890;6.040;2023-08-21T05:43:47;9.40;;;4.83;;
14088;SDS011;7120;52.890;6.040;2023-08-21T05:46:14;9.43;;;4.27;;
14088;SDS011;7120;52.890;6.040;2023-08-21T05:48:39;9.60;;;4.67;;
14088;SDS011;7120;52.890;6.040;2023-08-21T05:51:05;8.07;;;4.97;;
14088;SDS011;7120;52.890;6.040;2023-08-21T05:53:30;6.77;;;5.03;;
14088;SDS011;7120;52.890;6.040;2023-08-21T05:55:55;8.90;;;6.13;;
14088;SDS011;7120;52.890;6.040;2023-08-21T05:58:21;7.67;;;5.17;;
14088;SDS011;7120;52.890;6.040;2023-08-21T06:00:48;9.87;;;6.37;;
14088;SDS011;7120;52.890;6.040;2023-08-21T06:03:13;6.63;;;5.40;;
14088;SDS011;7120;52.890;6.040;2023-08-21T06:05:38;8.63;;;5.40;;
14088;SDS011;7120;52.890;6.040;2023-08-21T06:08:04;10.37;;;5.50;;
14088;SDS011;7120;52.890;6.040;2023-08-21T06:10:30;7.50;;;5.50;;
14088;SDS011;7120;52.890;6.040;2023-08-21T06:12:56;8.87;;;4.87;;
14088;SDS011;7120;52.890;6.040;2023-08-21T06:15:22;10.57;;;5.10;;
14088;SDS011;7120;52.890;6.040;2023-08-21T06:17:47;9.77;;;4.90;;
14088;SDS011;7120;52.890;6.040;2023-08-21T06:20:13;6.90;;;4.73;;
14088;SDS011;7120;52.890;6.040;2023-08-21T06:22:39;8.70;;;4.73;;
14088;SDS011;7120;52.890;6.040;2023-08-21T06:25:04;9.33;;;4.90;;
14088;SDS011;7120;52.890;6.040;2023-08-21T06:27:30;12.73;;;5.30;;
14088;SDS011;7120;52.890;6.040;2023-08-21T06:29:55;9.20;;;5.13;;
14088;SDS011;7120;52.890;6.040;2023-08-21T06:32:21;9.13;;;5.40;;
14088;SDS011;7120;52.890;6.040;2023-08-21T06:34:46;8.97;;;5.53;;
14088;SDS011;7120;52.890;6.040;2023-08-21T06:37:12;9.00;;;5.27;;
14088;SDS011;7120;52.890;6.040;2023-08-21T06:39:37;6.50;;;5.40;;
14088;SDS011;7120;52.890;6.040;2023-08-21T06:42:03;7.17;;;5.20;;
14088;SDS011;7120;52.890;6.040;2023-08-21T06:44:29;6.17;;;4.80;;
14088;SDS011;7120;52.890;6.040;2023-08-21T06:46:54;6.77;;;4.90;;
14088;SDS011;7120;52.890;6.040;2023-08-21T06:49:19;9.00;;;5.10;;
14088;SDS011;7120;52.890;6.040;2023-08-21T06:51:45;8.37;;;4.67;;
14088;SDS011;7120;52.890;6.040;2023-08-21T06:54:10;7.20;;;5.33;;
14088;SDS011;7120;52.890;6.040;2023-08-21T06:56:36;8.87;;;5.30;;
14088;SDS011;7120;52.890;6.040;2023-08-21T06:59:01;5.50;;;4.43;;
14088;SDS011;7120;52.890;6.040;2023-08-21T07:01:27;8.87;;;4.87;;
14088;SDS011;7120;52.890;6.040;2023-08-21T07:03:55;8.67;;;4.73;;
14088;SDS011;7120;52.890;6.040;2023-08-21T07:06:21;6.73;;;4.90;;
14088;SDS011;7120;52.890;6.040;2023-08-21T07:08:46;5.97;;;4.30;;
14088;SDS011;7120;52.890;6.040;2023-08-21T07:11:11;7.90;;;4.67;;
14088;SDS011;7120;52.890;6.040;2023-08-21T07:13:37;7.43;;;4.60;;
14088;SDS011;7120;52.890;6.040;2023-08-21T07:16:03;4.40;;;3.63;;
14088;SDS011;7120;52.890;6.040;2023-08-21T07:18:31;9.73;;;3.70;;
14088;SDS011;7120;52.890;6.040;2023-08-21T07:20:58;6.10;;;3.83;;
14088;SDS011;7120;52.890;6.040;2023-08-21T07:23:24;4.37;;;3.17;;
14088;SDS011;7120;52.890;6.040;2023-08-21T07:25:49;3.93;;;3.10;;
14088;SDS011;7120;52.890;6.040;2023-08-21T07:28:14;4.23;;;2.63;;
14088;SDS011;7120;52.890;6.040;2023-08-21T07:30:40;4.90;;;2.50;;
14088;SDS011;7120;52.890;6.040;2023-08-21T07:33:05;4.23;;;2.70;;
14088;SDS011;7120;52.890;6.040;2023-08-21T07:35:31;5.70;;;2.67;;
14088;SDS011;7120;52.890;6.040;2023-08-21T07:37:57;4.93;;;2.27;;
14088;SDS011;7120;52.890;6.040;2023-08-21T07:40:22;3.73;;;2.43;;
14088;SDS011;7120;52.890;6.040;2023-08-21T07:42:48;3.67;;;1.90;;
14088;SDS011;7120;52.890;6.040;2023-08-21T07:45:13;4.63;;;2.13;;
14088;SDS011;7120;52.890;6.040;2023-08-21T07:47:39;4.80;;;2.30;;
14088;SDS011;7120;52.890;6.040;2023-08-21T07:50:05;3.97;;;1.97;;
14088;SDS011;7120;52.890;6.040;2023-08-21T07:52:31;2.63;;;2.07;;
14088;SDS011;7120;52.890;6.040;2023-08-21T07:54:57;3.20;;;1.53;;
14088;SDS011;7120;52.890;6.040;2023-08-21T07:57:24;3.73;;;1.70;;
14088;SDS011;7120;52.890;6.040;2023-08-21T07:59:49;2.27;;;1.70;;
14088;SDS011;7120;52.890;6.040;2023-08-21T08:02:15;3.27;;;1.83;;
14088;SDS011;7120;52.890;6.040;2023-08-21T08:04:40;2.13;;;1.90;;
14088;SDS011;7120;52.890;6.040;2023-08-21T08:07:07;5.63;;;2.40;;
14088;SDS011;7120;52.890;6.040;2023-08-21T08:09:32;5.83;;;2.47;;
14088;SDS011;7120;52.890;6.040;2023-08-21T08:11:58;3.77;;;1.80;;
14088;SDS011;7120;52.890;6.040;2023-08-21T08:14:23;4.80;;;2.57;;
14088;SDS011;7120;52.890;6.040;2023-08-21T08:16:49;5.43;;;1.90;;
14088;SDS011;7120;52.890;6.040;2023-08-21T08:19:14;3.57;;;2.00;;
14088;SDS011;7120;52.890;6.040;2023-08-21T08:21:39;2.90;;;2.23;;
14088;SDS011;7120;52.890;6.040;2023-08-21T08:24:05;2.63;;;1.70;;
14088;SDS011;7120;52.890;6.040;2023-08-21T08:26:30;4.17;;;2.03;;
14088;SDS011;7120;52.890;6.040;2023-08-21T08:28:56;3.37;;;2.10;;
14088;SDS011;7120;52.890;6.040;2023-08-21T08:31:21;4.17;;;2.07;;
14088;SDS011;7120;52.890;6.040;2023-08-21T08:33:48;3.15;;;2.35;;
14088;SDS011;7120;52.890;6.040;2023-08-21T08:36:14;5.47;;;2.55;;
14088;SDS011;7120;52.890;6.040;2023-08-21T08:38:39;3.45;;;2.33;;
14088;SDS011;7120;52.890;6.040;2023-08-21T08:41:06;4.45;;;2.30;;
14088;SDS011;7120;52.890;6.040;2023-08-21T08:43:37;2.42;;;1.70;;
14088;SDS011;7120;52.890;6.040;2023-08-21T08:46:04;4.57;;;2.13;;
14088;SDS011;7120;52.890;6.040;2023-08-21T08:48:32;5.03;;;3.28;;
14088;SDS011;7120;52.890;6.040;2023-08-21T08:50:59;13.65;;;8.40;;
14088;SDS011;7120;52.890;6.040;2023-08-21T08:53:24;12.25;;;7.43;;
14088;SDS011;7120;52.890;6.040;2023-08-21T08:55:57;12.73;;;8.40;;
14088;SDS011;7120;52.890;6.040;2023-08-21T08:58:23;11.77;;;7.47;;
14088;SDS011;7120;52.890;6.040;2023-08-21T09:00:48;11.35;;;7.22;;
14088;SDS011;7120;52.890;6.040;2023-08-21T09:03:14;14.00;;;7.72;;
14088;SDS011;7120;52.890;6.040;2023-08-21T09:05:40;14.25;;;7.78;;
14088;SDS011;7120;52.890;6.040;2023-08-21T09:10:31;8.13;;;5.78;;
14088;SDS011;7120;52.890;6.040;2023-08-21T09:12:57;8.13;;;4.88;;
14088;SDS011;7120;52.890;6.040;2023-08-21T09:15:29;8.05;;;5.03;;
14088;SDS011;7120;52.890;6.040;2023-08-21T09:17:57;9.27;;;5.50;;
14088;SDS011;7120;52.890;6.040;2023-08-21T09:20:22;8.82;;;5.57;;
14088;SDS011;7120;52.890;6.040;2023-08-21T09:22:52;7.45;;;4.25;;
14088;SDS011;7120;52.890;6.040;2023-08-21T09:25:20;7.25;;;4.28;;
14088;SDS011;7120;52.890;6.040;2023-08-21T09:27:45;14.13;;;6.53;;
14088;SDS011;7120;52.890;6.040;2023-08-21T09:30:11;7.03;;;4.38;;
14088;SDS011;7120;52.890;6.040;2023-08-21T09:32:57;5.95;;;4.32;;
14088;SDS011;7120;52.890;6.040;2023-08-21T09:35:25;8.35;;;3.70;;
14088;SDS011;7120;52.890;6.040;2023-08-21T09:37:51;7.95;;;3.03;;
14088;SDS011;7120;52.890;6.040;2023-08-21T09:40:20;3.03;;;2.17;;
14088;SDS011;7120;52.890;6.040;2023-08-21T09:42:51;4.40;;;2.53;;
14088;SDS011;7120;52.890;6.040;2023-08-21T09:45:19;4.05;;;2.30;;
14088;SDS011;7120;52.890;6.040;2023-08-21T09:47:46;4.40;;;2.33;;
14088;SDS011;7120;52.890;6.040;2023-08-21T09:50:11;6.22;;;2.70;;
14088;SDS011;7120;52.890;6.040;2023-08-21T09:52:37;4.47;;;2.10;;
14088;SDS011;7120;52.890;6.040;2023-08-21T09:55:03;5.35;;;1.92;;
14088;SDS011;7120;52.890;6.040;2023-08-21T09:57:30;4.25;;;2.13;;
14088;SDS011;7120;52.890;6.040;2023-08-21T09:59:57;3.45;;;1.98;;
14088;SDS011;7120;52.890;6.040;2023-08-21T10:02:24;5.88;;;2.42;;
14088;SDS011;7120;52.890;6.040;2023-08-21T10:04:51;6.15;;;1.83;;
14088;SDS011;7120;52.890;6.040;2023-08-21T10:07:19;4.05;;;1.58;;
14088;SDS011;7120;52.890;6.040;2023-08-21T10:09:47;4.05;;;1.70;;
14088;SDS011;7120;52.890;6.040;2023-08-21T10:12:13;4.93;;;2.03;;
14088;SDS011;7120;52.890;6.040;2023-08-21T10:14:40;3.67;;;1.80;;
14088;SDS011;7120;52.890;6.040;2023-08-21T10:17:06;3.35;;;1.75;;
14088;SDS011;7120;52.890;6.040;2023-08-21T10:19:33;5.05;;;1.58;;
14088;SDS011;7120;52.890;6.040;2023-08-21T10:21:59;4.82;;;2.22;;
14088;SDS011;7120;52.890;6.040;2023-08-21T10:24:28;5.00;;;2.67;;
14088;SDS011;7120;52.890;6.040;2023-08-21T10:26:59;4.38;;;1.73;;
14088;SDS011;7120;52.890;6.040;2023-08-21T10:29:25;5.28;;;2.45;;
14088;SDS011;7120;52.890;6.040;2023-08-21T10:34:33;5.85;;;2.20;;
14088;SDS011;7120;52.890;6.040;2023-08-21T10:39:25;4.45;;;2.00;;
14088;SDS011;7120;52.890;6.040;2023-08-21T10:41:55;4.43;;;1.85;;
14088;SDS011;7120;52.890;6.040;2023-08-21T10:49:52;4.57;;;2.10;;
14088;SDS011;7120;52.890;6.040;2023-08-21T10:54:51;2.95;;;1.80;;
14088;SDS011;7120;52.890;6.040;2023-08-21T10:57:22;4.30;;;1.88;;
14088;SDS011;7120;52.890;6.040;2023-08-21T10:59:51;4.32;;;1.52;;
14088;SDS011;7120;52.890;6.040;2023-08-21T11:02:18;2.20;;;1.27;;
14088;SDS011;7120;52.890;6.040;2023-08-21T11:04:44;3.05;;;1.48;;
14088;SDS011;7120;52.890;6.040;2023-08-21T11:07:09;3.28;;;1.80;;
14088;SDS011;7120;52.890;6.040;2023-08-21T11:09:38;3.72;;;1.65;;
14088;SDS011;7120;52.890;6.040;2023-08-21T11:12:11;3.92;;;1.60;;
14088;SDS011;7120;52.890;6.040;2023-08-21T11:14:38;3.33;;;1.58;;
14088;SDS011;7120;52.890;6.040;2023-08-21T11:17:04;2.28;;;1.48;;
14088;SDS011;7120;52.890;6.040;2023-08-21T11:19:33;4.20;;;1.80;;
14088;SDS011;7120;52.890;6.040;2023-08-21T11:22:00;3.90;;;1.55;;
14088;SDS011;7120;52.890;6.040;2023-08-21T11:27:03;3.58;;;1.30;;
14088;SDS011;7120;52.890;6.040;2023-08-21T11:29:31;2.67;;;1.40;;
14088;SDS011;7120;52.890;6.040;2023-08-21T11:32:01;1.95;;;1.00;;
14088;SDS011;7120;52.890;6.040;2023-08-21T11:34:28;3.28;;;1.58;;
14088;SDS011;7120;52.890;6.040;2023-08-21T11:36:53;2.38;;;1.27;;
14088;SDS011;7120;52.890;6.040;2023-08-21T11:39:19;1.60;;;1.05;;
14088;SDS011;7120;52.890;6.040;2023-08-21T11:41:57;3.78;;;1.48;;
14088;SDS011;7120;52.890;6.040;2023-08-21T11:44:23;2.28;;;1.25;;
14088;SDS011;7120;52.890;6.040;2023-08-21T11:46:51;4.28;;;1.50;;
14088;SDS011;7120;52.890;6.040;2023-08-21T11:49:19;5.70;;;1.58;;
14088;SDS011;7120;52.890;6.040;2023-08-21T11:51:47;10.45;;;2.42;;
14088;SDS011;7120;52.890;6.040;2023-08-21T11:54:13;8.90;;;2.17;;
14088;SDS011;7120;52.890;6.040;2023-08-21T11:56:39;7.82;;;2.17;;
14088;SDS011;7120;52.890;6.040;2023-08-21T11:59:07;4.70;;;1.42;;
14088;SDS011;7120;52.890;6.040;2023-08-21T12:01:33;6.97;;;1.67;;
14088;SDS011;7120;52.890;6.040;2023-08-21T12:03:59;3.08;;;1.05;;
14088;SDS011;7120;52.890;6.040;2023-08-21T12:06:25;5.32;;;1.52;;
14088;SDS011;7120;52.890;6.040;2023-08-21T12:08:51;3.15;;;1.50;;
14088;SDS011;7120;52.890;6.040;2023-08-21T12:11:16;5.22;;;1.30;;
14088;SDS011;7120;52.890;6.040;2023-08-21T12:13:42;2.38;;;1.00;;
14088;SDS011;7120;52.890;6.040;2023-08-21T12:16:07;1.73;;;1.08;;
14088;SDS011;7120;52.890;6.040;2023-08-21T12:18:33;3.03;;;1.42;;
14088;SDS011;7120;52.890;6.040;2023-08-21T12:20:58;2.58;;;0.93;;
14088;SDS011;7120;52.890;6.040;2023-08-21T12:23:24;2.67;;;1.20;;
14088;SDS011;7120;52.890;6.040;2023-08-21T12:25:49;2.13;;;1.10;;
14088;SDS011;7120;52.890;6.040;2023-08-21T12:28:15;2.95;;;1.08;;
14088;SDS011;7120;52.890;6.040;2023-08-21T12:30:40;4.05;;;1.17;;
14088;SDS011;7120;52.890;6.040;2023-08-21T12:33:06;3.25;;;1.20;;
14088;SDS011;7120;52.890;6.040;2023-08-21T12:35:31;3.33;;;1.25;;
14088;SDS011;7120;52.890;6.040;2023-08-21T12:37:57;2.10;;;1.05;;
14088;SDS011;7120;52.890;6.040;2023-08-21T12:40:23;3.10;;;1.13;;
14088;SDS011;7120;52.890;6.040;2023-08-21T12:42:49;1.65;;;0.95;;
14088;SDS011;7120;52.890;6.040;2023-08-21T12:45:15;3.55;;;0.90;;
14088;SDS011;7120;52.890;6.040;2023-08-21T12:47:41;1.92;;;1.00;;
14088;SDS011;7120;52.890;6.040;2023-08-21T12:50:06;2.75;;;1.10;;
14088;SDS011;7120;52.890;6.040;2023-08-21T12:52:32;2.38;;;0.98;;
14088;SDS011;7120;52.890;6.040;2023-08-21T12:54:57;1.05;;;0.80;;
14088;SDS011;7120;52.890;6.040;2023-08-21T12:57:24;2.75;;;1.00;;
14088;SDS011;7120;52.890;6.040;2023-08-21T12:59:51;2.85;;;1.27;;
14088;SDS011;7120;52.890;6.040;2023-08-21T13:02:16;1.70;;;0.88;;
14088;SDS011;7120;52.890;6.040;2023-08-21T13:04:42;2.20;;;1.15;;
14088;SDS011;7120;52.890;6.040;2023-08-21T13:07:07;4.68;;;1.30;;
14088;SDS011;7120;52.890;6.040;2023-08-21T13:09:32;2.22;;;1.17;;
14088;SDS011;7120;52.890;6.040;2023-08-21T13:11:58;1.67;;;0.88;;
14088;SDS011;7120;52.890;6.040;2023-08-21T13:14:24;2.20;;;0.90;;
14088;SDS011;7120;52.890;6.040;2023-08-21T13:16:49;3.15;;;1.40;;
14088;SDS011;7120;52.890;6.040;2023-08-21T13:19:14;2.75;;;1.08;;
14088;SDS011;7120;52.890;6.040;2023-08-21T13:21:40;1.63;;;0.95;;
14088;SDS011;7120;52.890;6.040;2023-08-21T13:24:05;2.17;;;0.95;;
14088;SDS011;7120;52.890;6.040;2023-08-21T13:26:32;1.35;;;0.90;;
14088;SDS011;7120;52.890;6.040;2023-08-21T13:28:57;1.65;;;0.90;;
14088;SDS011;7120;52.890;6.040;2023-08-21T13:31:22;2.10;;;1.02;;
14088;SDS011;7120;52.890;6.040;2023-08-21T13:33:48;2.10;;;1.08;;
14088;SDS011;7120;52.890;6.040;2023-08-21T13:36:15;3.58;;;0.88;;
14088;SDS011;7120;52.890;6.040;2023-08-21T13:38:41;2.35;;;1.05;;
14088;SDS011;7120;52.890;6.040;2023-08-21T13:41:07;1.63;;;1.00;;
14088;SDS011;7120;52.890;6.040;2023-08-21T13:43:33;2.13;;;0.85;;
14088;SDS011;7120;52.890;6.040;2023-08-21T13:46:02;1.35;;;0.73;;
14088;SDS011;7120;52.890;6.040;2023-08-21T13:48:30;1.77;;;0.80;;
14088;SDS011;7120;52.890;6.040;2023-08-21T13:50:57;2.25;;;1.00;;
14088;SDS011;7120;52.890;6.040;2023-08-21T13:53:22;2.03;;;0.93;;
14088;SDS011;7120;52.890;6.040;2023-08-21T13:55:49;1.52;;;0.80;;
14088;SDS011;7120;52.890;6.040;2023-08-21T13:58:15;3.08;;;1.13;;
14088;SDS011;7120;52.890;6.040;2023-08-21T14:00:40;2.05;;;1.13;;
14088;SDS011;7120;52.890;6.040;2023-08-21T14:03:05;1.83;;;0.80;;
14088;SDS011;7120;52.890;6.040;2023-08-21T14:05:31;2.55;;;0.90;;
14088;SDS011;7120;52.890;6.040;2023-08-21T14:07:56;3.13;;;1.30;;
14088;SDS011;7120;52.890;6.040;2023-08-21T14:10:22;1.65;;;0.80;;
14088;SDS011;7120;52.890;6.040;2023-08-21T14:12:48;3.00;;;1.00;;
14088;SDS011;7120;52.890;6.040;2023-08-21T14:15:13;2.20;;;0.80;;
14088;SDS011;7120;52.890;6.040;2023-08-21T14:17:39;5.95;;;1.27;;
14088;SDS011;7120;52.890;6.040;2023-08-21T14:20:04;2.22;;;0.95;;
14088;SDS011;7120;52.890;6.040;2023-08-21T14:22:32;1.73;;;0.93;;
14088;SDS011;7120;52.890;6.040;2023-08-21T14:24:57;2.70;;;1.10;;
14088;SDS011;7120;52.890;6.040;2023-08-21T14:27:23;2.60;;;1.17;;
14088;SDS011;7120;52.890;6.040;2023-08-21T14:29:48;3.38;;;1.10;;
14088;SDS011;7120;52.890;6.040;2023-08-21T14:32:14;2.08;;;1.40;;
14088;SDS011;7120;52.890;6.040;2023-08-21T14:34:40;3.55;;;1.40;;
14088;SDS011;7120;52.890;6.040;2023-08-21T14:37:05;6.03;;;2.10;;
14088;SDS011;7120;52.890;6.040;2023-08-21T14:39:31;5.82;;;2.60;;
14088;SDS011;7120;52.890;6.040;2023-08-21T14:41:56;2.92;;;1.40;;
14088;SDS011;7120;52.890;6.040;2023-08-21T14:44:23;3.95;;;1.70;;
14088;SDS011;7120;52.890;6.040;2023-08-21T14:46:48;3.47;;;1.65;;
14088;SDS011;7120;52.890;6.040;2023-08-21T14:49:14;3.42;;;1.60;;
14088;SDS011;7120;52.890;6.040;2023-08-21T14:51:39;4.25;;;2.75;;
14088;SDS011;7120;52.890;6.040;2023-08-21T14:54:05;5.70;;;3.20;;
14088;SDS011;7120;52.890;6.040;2023-08-21T14:56:30;4.88;;;3.00;;
14088;SDS011;7120;52.890;6.040;2023-08-21T14:58:56;4.80;;;3.53;;
14088;SDS011;7120;52.890;6.040;2023-08-21T15:01:21;6.13;;;3.70;;
14088;SDS011;7120;52.890;6.040;2023-08-21T15:03:47;5.45;;;3.55;;
14088;SDS011;7120;52.890;6.040;2023-08-21T15:06:12;8.30;;;3.47;;
14088;SDS011;7120;52.890;6.040;2023-08-21T15:08:38;6.05;;;3.45;;
14088;SDS011;7120;52.890;6.040;2023-08-21T15:11:05;5.07;;;2.97;;
14088;SDS011;7120;52.890;6.040;2023-08-21T15:13:30;6.85;;;2.70;;
14088;SDS011;7120;52.890;6.040;2023-08-21T15:15:55;4.22;;;2.40;;
14088;SDS011;7120;52.890;6.040;2023-08-21T15:18:21;6.95;;;2.75;;